sensor_id;sensor_type;location;lat;lon;timestamp;temperature;humidity
66582;SHT31;53438;48.898;2.308;2023-03-12T00:00:41;9.31;87.90
66582;SHT31;53438;48.898;2.308;2023-03-12T00:03:07;9.36;88.04
66582;SHT31;53438;48.898;2.308;2023-03-12T00:05:32;9.35;88.11
66582;SHT31;53438;48.898;2.308;2023-03-12T00:07:58;9.42;88.39
66582;SHT31;53438;48.898;2.308;2023-03-12T00:10:28;9.42;88.30
66582;SHT31;53438;48.898;2.308;2023-03-12T00:12:54;9.38;88.10
66582;SHT31;53438;48.898;2.308;2023-03-12T00:15:20;9.35;88.02
66582;SHT31;53438;48.898;2.308;2023-03-12T00:17:45;9.35;88.07
66582;SHT31;53438;48.898;2.308;2023-03-12T00:20:11;9.34;88.10
66582;SHT31;53438;48.898;2.308;2023-03-12T00:22:37;9.36;88.46
66582;SHT31;53438;48.898;2.308;2023-03-12T00:25:02;9.38;88.27
66582;SHT31;53438;48.898;2.308;2023-03-12T00:27:28;9.39;88.25
66582;SHT31;53438;48.898;2.308;2023-03-12T00:29:54;9.42;88.50
66582;SHT31;53438;48.898;2.308;2023-03-12T00:32:19;9.43;88.31
66582;SHT31;53438;48.898;2.308;2023-03-12T00:34:49;9.42;88.45
66582;SHT31;53438;48.898;2.308;2023-03-12T00:37:15;9.42;88.30
66582;SHT31;53438;48.898;2.308;2023-03-12T00:39:40;9.42;88.24
66582;SHT31;53438;48.898;2.308;2023-03-12T00:42:06;9.40;88.35
66582;SHT31;53438;48.898;2.308;2023-03-12T00:44:31;9.38;88.22
66582;SHT31;53438;48.898;2.308;2023-03-12T00:46:56;9.40;88.32
66582;SHT31;53438;48.898;2.308;2023-03-12T00:49:22;9.40;88.67
66582;SHT31;53438;48.898;2.308;2023-03-12T00:51:48;9.42;88.59
66582;SHT31;53438;48.898;2.308;2023-03-12T00:54:14;9.42;88.52
66582;SHT31;53438;48.898;2.308;2023-03-12T00:56:39;9.45;88.64
66582;SHT31;53438;48.898;2.308;2023-03-12T00:59:04;9.43;88.78
66582;SHT31;53438;48.898;2.308;2023-03-12T04:00:31;10.20;86.16
66582;SHT31;53438;48.898;2.308;2023-03-12T04:02:56;10.14;86.28
66582;SHT31;53438;48.898;2.308;2023-03-12T04:05:21;10.13;86.34
66582;SHT31;53438;48.898;2.308;2023-03-12T04:07:47;10.13;86.48
66582;SHT31;53438;48.898;2.308;2023-03-12T04:10:13;10.10;86.48
66582;SHT31;53438;48.898;2.308;2023-03-12T04:12:38;10.10;86.31
66582;SHT31;53438;48.898;2.308;2023-03-12T04:15:04;10.13;86.19
66582;SHT31;53438;48.898;2.308;2023-03-12T04:17:29;10.11;86.20
66582;SHT31;53438;48.898;2.308;2023-03-12T04:19:55;10.10;86.33
66582;SHT31;53438;48.898;2.308;2023-03-12T04:22:20;10.10;86.31
66582;SHT31;53438;48.898;2.308;2023-03-12T04:24:46;10.11;86.25
66582;SHT31;53438;48.898;2.308;2023-03-12T04:27:11;10.08;86.28
66582;SHT31;53438;48.898;2.308;2023-03-12T04:29:36;10.10;86.18
66582;SHT31;53438;48.898;2.308;2023-03-12T04:32:04;10.10;85.93
66582;SHT31;53438;48.898;2.308;2023-03-12T04:34:29;10.08;85.63
66582;SHT31;53438;48.898;2.308;2023-03-12T04:36:55;10.13;85.40
66582;SHT31;53438;48.898;2.308;2023-03-12T04:39:20;10.17;85.47
66582;SHT31;53438;48.898;2.308;2023-03-12T04:41:46;10.08;85.78
66582;SHT31;53438;48.898;2.308;2023-03-12T04:44:12;10.11;85.72
66582;SHT31;53438;48.898;2.308;2023-03-12T04:46:38;10.11;85.74
66582;SHT31;53438;48.898;2.308;2023-03-12T04:49:03;10.17;85.43
66582;SHT31;53438;48.898;2.308;2023-03-12T04:51:30;10.16;85.55
66582;SHT31;53438;48.898;2.308;2023-03-12T04:53:56;10.14;85.62
66582;SHT31;53438;48.898;2.308;2023-03-12T04:56:21;10.14;85.79
66582;SHT31;53438;48.898;2.308;2023-03-12T04:58:47;10.18;85.40
66582;SHT31;53438;48.898;2.308;2023-03-12T05:01:39;10.18;85.35
66582;SHT31;53438;48.898;2.308;2023-03-12T05:04:05;10.21;85.13
66582;SHT31;53438;48.898;2.308;2023-03-12T05:06:30;10.18;85.39
66582;SHT31;53438;48.898;2.308;2023-03-12T05:08:56;10.17;85.52
66582;SHT31;53438;48.898;2.308;2023-03-12T05:11:21;10.16;85.37
66582;SHT31;53438;48.898;2.308;2023-03-12T05:13:47;10.18;85.45
66582;SHT31;53438;48.898;2.308;2023-03-12T05:16:14;10.17;85.41
66582;SHT31;53438;48.898;2.308;2023-03-12T05:18:40;10.21;85.23
66582;SHT31;53438;48.898;2.308;2023-03-12T05:21:14;10.20;85.17
66582;SHT31;53438;48.898;2.308;2023-03-12T05:23:40;10.35;84.69
66582;SHT31;53438;48.898;2.308;2023-03-12T05:26:14;10.24;85.04
66582;SHT31;53438;48.898;2.308;2023-03-12T05:28:40;10.20;85.18
66582;SHT31;53438;48.898;2.308;2023-03-12T05:31:08;10.21;84.84
66582;SHT31;53438;48.898;2.308;2023-03-12T05:33:34;10.24;84.68
66582;SHT31;53438;48.898;2.308;2023-03-12T05:36:00;10.24;84.51
66582;SHT31;53438;48.898;2.308;2023-03-12T05:38:25;10.20;84.46
66582;SHT31;53438;48.898;2.308;2023-03-12T05:40:53;10.27;83.69
66582;SHT31;53438;48.898;2.308;2023-03-12T05:43:18;10.24;83.97
66582;SHT31;53438;48.898;2.308;2023-03-12T05:45:44;10.21;83.85
66582;SHT31;53438;48.898;2.308;2023-03-12T05:48:09;10.20;83.88
66582;SHT31;53438;48.898;2.308;2023-03-12T05:50:34;10.24;83.92
66582;SHT31;53438;48.898;2.308;2023-03-12T05:53:00;10.20;83.71
66582;SHT31;53438;48.898;2.308;2023-03-12T05:55:25;10.21;83.55
66582;SHT31;53438;48.898;2.308;2023-03-12T05:57:50;10.21;83.45
66582;SHT31;53438;48.898;2.308;2023-03-12T06:00:16;10.22;83.60
66582;SHT31;53438;48.898;2.308;2023-03-12T06:02:42;10.24;83.44
66582;SHT31;53438;48.898;2.308;2023-03-12T06:05:09;10.25;83.38
66582;SHT31;53438;48.898;2.308;2023-03-12T06:07:36;10.25;83.37
66582;SHT31;53438;48.898;2.308;2023-03-12T06:10:01;10.21;83.62
66582;SHT31;53438;48.898;2.308;2023-03-12T06:12:27;10.22;83.77
66582;SHT31;53438;48.898;2.308;2023-03-12T06:14:52;10.33;83.30
66582;SHT31;53438;48.898;2.308;2023-03-12T06:17:18;10.30;83.47
66582;SHT31;53438;48.898;2.308;2023-03-12T06:19:43;10.33;83.62
66582;SHT31;53438;48.898;2.308;2023-03-12T06:22:09;10.33;83.43
66582;SHT31;53438;48.898;2.308;2023-03-12T06:24:34;10.28;83.74
66582;SHT31;53438;48.898;2.308;2023-03-12T06:26:59;10.25;83.86
66582;SHT31;53438;48.898;2.308;2023-03-12T06:29:25;10.30;83.70
66582;SHT31;53438;48.898;2.308;2023-03-12T06:31:50;10.25;84.05
66582;SHT31;53438;48.898;2.308;2023-03-12T06:34:16;10.24;84.15
66582;SHT31;53438;48.898;2.308;2023-03-12T06:36:42;10.22;84.25
66582;SHT31;53438;48.898;2.308;2023-03-12T06:39:07;10.28;84.05
66582;SHT31;53438;48.898;2.308;2023-03-12T06:41:34;10.28;84.16
66582;SHT31;53438;48.898;2.308;2023-03-12T06:44:00;10.25;84.03
66582;SHT31;53438;48.898;2.308;2023-03-12T06:46:28;10.27;84.30
66582;SHT31;53438;48.898;2.308;2023-03-12T06:48:53;10.24;84.21
66582;SHT31;53438;48.898;2.308;2023-03-12T06:51:18;10.25;84.37
66582;SHT31;53438;48.898;2.308;2023-03-12T06:53:45;10.28;84.33
66582;SHT31;53438;48.898;2.308;2023-03-12T06:56:11;10.30;84.58
66582;SHT31;53438;48.898;2.308;2023-03-12T06:58:37;10.34;84.27
66582;SHT31;53438;48.898;2.308;2023-03-12T07:01:03;10.40;84.20
66582;SHT31;53438;48.898;2.308;2023-03-12T07:03:29;10.40;83.89
66582;SHT31;53438;48.898;2.308;2023-03-12T07:05:58;10.40;83.80
66582;SHT31;53438;48.898;2.308;2023-03-12T07:08:25;10.37;84.07
66582;SHT31;53438;48.898;2.308;2023-03-12T07:10:51;10.41;84.13
66582;SHT31;53438;48.898;2.308;2023-03-12T07:13:16;10.44;84.03
66582;SHT31;53438;48.898;2.308;2023-03-12T07:15:41;10.42;84.04
66582;SHT31;53438;48.898;2.308;2023-03-12T07:18:10;10.38;84.18
66582;SHT31;53438;48.898;2.308;2023-03-12T07:20:40;10.38;84.30
66582;SHT31;53438;48.898;2.308;2023-03-12T07:23:06;10.38;84.03
66582;SHT31;53438;48.898;2.308;2023-03-12T07:25:35;10.41;84.13
66582;SHT31;53438;48.898;2.308;2023-03-12T07:28:03;10.40;84.16
66582;SHT31;53438;48.898;2.308;2023-03-12T07:30:29;10.44;83.91
66582;SHT31;53438;48.898;2.308;2023-03-12T07:33:07;10.52;83.44
66582;SHT31;53438;48.898;2.308;2023-03-12T07:35:34;10.49;83.59
66582;SHT31;53438;48.898;2.308;2023-03-12T07:38:01;10.49;83.80
66582;SHT31;53438;48.898;2.308;2023-03-12T07:40:26;10.52;83.51
66582;SHT31;53438;48.898;2.308;2023-03-12T07:42:52;10.56;82.78
66582;SHT31;53438;48.898;2.308;2023-03-12T07:45:18;10.58;82.85
66582;SHT31;53438;48.898;2.308;2023-03-12T07:47:44;10.64;82.64
66582;SHT31;53438;48.898;2.308;2023-03-12T07:50:10;10.65;82.62
66582;SHT31;53438;48.898;2.308;2023-03-12T07:52:36;10.68;82.49
66582;SHT31;53438;48.898;2.308;2023-03-12T07:55:01;10.68;82.45
66582;SHT31;53438;48.898;2.308;2023-03-12T07:57:26;10.80;82.18
66582;SHT31;53438;48.898;2.308;2023-03-12T07:59:52;10.80;81.82
66582;SHT31;53438;48.898;2.308;2023-03-12T08:02:17;10.92;80.58
66582;SHT31;53438;48.898;2.308;2023-03-12T08:04:43;10.93;80.93
66582;SHT31;53438;48.898;2.308;2023-03-12T08:07:08;10.89;81.44
66582;SHT31;53438;48.898;2.308;2023-03-12T08:09:34;10.88;81.54
66582;SHT31;53438;48.898;2.308;2023-03-12T08:11:59;10.85;81.74
66582;SHT31;53438;48.898;2.308;2023-03-12T08:14:25;10.95;81.07
66582;SHT31;53438;48.898;2.308;2023-03-12T08:16:50;10.88;81.51
66582;SHT31;53438;48.898;2.308;2023-03-12T08:19:17;10.88;81.31
66582;SHT31;53438;48.898;2.308;2023-03-12T08:21:42;10.82;81.73
66582;SHT31;53438;48.898;2.308;2023-03-12T08:24:07;10.85;81.65
66582;SHT31;53438;48.898;2.308;2023-03-12T08:26:32;10.88;81.50
66582;SHT31;53438;48.898;2.308;2023-03-12T08:28:58;10.96;80.91
66582;SHT31;53438;48.898;2.308;2023-03-12T08:31:26;10.93;81.33
66582;SHT31;53438;48.898;2.308;2023-03-12T08:33:51;11.02;81.11
66582;SHT31;53438;48.898;2.308;2023-03-12T08:36:17;11.16;79.89
66582;SHT31;53438;48.898;2.308;2023-03-12T08:38:42;11.10;80.58
66582;SHT31;53438;48.898;2.308;2023-03-12T08:41:07;11.13;80.41
66582;SHT31;53438;48.898;2.308;2023-03-12T08:43:33;11.20;80.14
66582;SHT31;53438;48.898;2.308;2023-03-12T08:46:00;11.15;80.38
66582;SHT31;53438;48.898;2.308;2023-03-12T08:48:27;11.16;80.56
66582;SHT31;53438;48.898;2.308;2023-03-12T08:50:55;11.40;78.95
66582;SHT31;53438;48.898;2.308;2023-03-12T08:53:21;11.44;79.44
66582;SHT31;53438;48.898;2.308;2023-03-12T08:55:46;11.41;79.41
66582;SHT31;53438;48.898;2.308;2023-03-12T08:58:12;11.51;78.96
66582;SHT31;53438;48.898;2.308;2023-03-12T09:00:37;11.37;79.62
66582;SHT31;53438;48.898;2.308;2023-03-12T09:03:03;11.36;79.51
66582;SHT31;53438;48.898;2.308;2023-03-12T09:05:28;11.37;79.49
66582;SHT31;53438;48.898;2.308;2023-03-12T09:07:55;11.63;77.83
66582;SHT31;53438;48.898;2.308;2023-03-12T09:10:20;11.53;78.39
66582;SHT31;53438;48.898;2.308;2023-03-12T09:12:45;11.47;77.95
66582;SHT31;53438;48.898;2.308;2023-03-12T09:15:11;11.51;77.48
66582;SHT31;53438;48.898;2.308;2023-03-12T09:17:37;11.57;77.62
66582;SHT31;53438;48.898;2.308;2023-03-12T09:20:04;11.54;77.66
66582;SHT31;53438;48.898;2.308;2023-03-12T09:22:33;11.58;77.76
66582;SHT31;53438;48.898;2.308;2023-03-12T09:25:04;11.67;77.44
66582;SHT31;53438;48.898;2.308;2023-03-12T09:27:29;11.68;77.64
66582;SHT31;53438;48.898;2.308;2023-03-12T09:29:55;11.71;76.97
66582;SHT31;53438;48.898;2.308;2023-03-12T09:32:20;11.88;74.90
66582;SHT31;53438;48.898;2.308;2023-03-12T09:34:45;11.79;75.69
66582;SHT31;53438;48.898;2.308;2023-03-12T09:37:11;11.71;76.11
66582;SHT31;53438;48.898;2.308;2023-03-12T09:39:36;11.86;74.91
66582;SHT31;53438;48.898;2.308;2023-03-12T09:42:05;12.02;74.27
66582;SHT31;53438;48.898;2.308;2023-03-12T09:44:43;12.01;74.89
66582;SHT31;53438;48.898;2.308;2023-03-12T09:47:33;12.21;73.38
66582;SHT31;53438;48.898;2.308;2023-03-12T09:50:16;12.06;74.68
66582;SHT31;53438;48.898;2.308;2023-03-12T09:52:49;12.16;73.54
66582;SHT31;53438;48.898;2.308;2023-03-12T09:55:18;12.11;72.70
66582;SHT31;53438;48.898;2.308;2023-03-12T09:57:45;12.13;72.91
66582;SHT31;53438;48.898;2.308;2023-03-12T10:00:31;12.26;71.87
66582;SHT31;53438;48.898;2.308;2023-03-12T10:03:21;12.16;72.74
66582;SHT31;53438;48.898;2.308;2023-03-12T10:10:48;12.16;72.16
66582;SHT31;53438;48.898;2.308;2023-03-12T10:13:42;12.26;71.42
66582;SHT31;53438;48.898;2.308;2023-03-12T10:21:34;12.44;70.63
66582;SHT31;53438;48.898;2.308;2023-03-12T10:24:12;12.44;71.37
66582;SHT31;53438;48.898;2.308;2023-03-12T10:26:50;12.34;71.61
66582;SHT31;53438;48.898;2.308;2023-03-12T10:29:31;12.57;70.26
66582;SHT31;53438;48.898;2.308;2023-03-12T10:32:05;12.42;71.86
66582;SHT31;53438;48.898;2.308;2023-03-12T10:34:36;12.34;72.21
66582;SHT31;53438;48.898;2.308;2023-03-12T10:37:25;12.30;71.90
66582;SHT31;53438;48.898;2.308;2023-03-12T10:39:53;12.29;72.10
66582;SHT31;53438;48.898;2.308;2023-03-12T10:42:27;12.34;71.60
66582;SHT31;53438;48.898;2.308;2023-03-12T10:44:57;12.44;71.65
66582;SHT31;53438;48.898;2.308;2023-03-12T10:49:48;12.46;70.63
66582;SHT31;53438;48.898;2.308;2023-03-12T10:52:21;12.50;70.15
66582;SHT31;53438;48.898;2.308;2023-03-12T10:54:49;12.53;69.79
66582;SHT31;53438;48.898;2.308;2023-03-12T10:57:16;12.72;69.61
66582;SHT31;53438;48.898;2.308;2023-03-12T10:59:44;12.64;70.48
66582;SHT31;53438;48.898;2.308;2023-03-12T11:02:33;12.64;70.44
66582;SHT31;53438;48.898;2.308;2023-03-12T11:05:00;12.67;70.26
66582;SHT31;53438;48.898;2.308;2023-03-12T11:07:33;12.65;70.18
66582;SHT31;53438;48.898;2.308;2023-03-12T11:12:31;12.54;70.48
66582;SHT31;53438;48.898;2.308;2023-03-12T11:14:58;12.53;70.49
66582;SHT31;53438;48.898;2.308;2023-03-12T11:17:27;12.57;70.01
66582;SHT31;53438;48.898;2.308;2023-03-12T11:19:52;12.44;70.57
66582;SHT31;53438;48.898;2.308;2023-03-12T11:22:32;12.90;68.51
66582;SHT31;53438;48.898;2.308;2023-03-12T11:24:59;12.84;69.07
66582;SHT31;53438;48.898;2.308;2023-03-12T11:30:05;12.73;69.71
66582;SHT31;53438;48.898;2.308;2023-03-12T11:32:34;12.65;70.47
66582;SHT31;53438;48.898;2.308;2023-03-12T11:35:00;12.67;70.13
66582;SHT31;53438;48.898;2.308;2023-03-12T11:48:30;12.91;69.14
66582;SHT31;53438;48.898;2.308;2023-03-12T11:53:54;12.73;70.29
66582;SHT31;53438;48.898;2.308;2023-03-12T11:56:35;12.77;69.76
66582;SHT31;53438;48.898;2.308;2023-03-12T11:59:05;12.77;69.62
66582;SHT31;53438;48.898;2.308;2023-03-12T12:04:49;12.93;69.11
66582;SHT31;53438;48.898;2.308;2023-03-12T12:13:00;13.14;65.88
66582;SHT31;53438;48.898;2.308;2023-03-12T12:18:19;13.32;63.21
66582;SHT31;53438;48.898;2.308;2023-03-12T12:20:56;13.31;64.50
66582;SHT31;53438;48.898;2.308;2023-03-12T12:26:18;13.31;66.07
66582;SHT31;53438;48.898;2.308;2023-03-12T12:31:53;13.22;67.20
66582;SHT31;53438;48.898;2.308;2023-03-12T12:34:41;13.11;67.10
66582;SHT31;53438;48.898;2.308;2023-03-12T12:37:36;13.24;66.41
66582;SHT31;53438;48.898;2.308;2023-03-12T12:42:45;13.18;65.91
66582;SHT31;53438;48.898;2.308;2023-03-12T12:45:13;13.34;65.19
66582;SHT31;53438;48.898;2.308;2023-03-12T12:47:45;13.25;66.31
66582;SHT31;53438;48.898;2.308;2023-03-12T12:50:19;13.16;66.81
66582;SHT31;53438;48.898;2.308;2023-03-12T12:52:51;13.10;66.89
66582;SHT31;53438;48.898;2.308;2023-03-12T12:55:30;13.16;65.66
66582;SHT31;53438;48.898;2.308;2023-03-12T12:58:14;13.16;66.67
66582;SHT31;53438;48.898;2.308;2023-03-12T13:00:52;13.48;65.29
66582;SHT31;53438;48.898;2.308;2023-03-12T13:03:23;13.61;65.31
66582;SHT31;53438;48.898;2.308;2023-03-12T13:16:44;13.51;66.03
66582;SHT31;53438;48.898;2.308;2023-03-12T13:26:53;13.96;62.27
66582;SHT31;53438;48.898;2.308;2023-03-12T13:31:55;13.83;62.69
66582;SHT31;53438;48.898;2.308;2023-03-12T13:36:56;13.90;63.19
66582;SHT31;53438;48.898;2.308;2023-03-12T13:39:34;13.84;64.30
66582;SHT31;53438;48.898;2.308;2023-03-12T13:42:01;13.86;64.23
66582;SHT31;53438;48.898;2.308;2023-03-12T13:44:46;13.87;63.88
66582;SHT31;53438;48.898;2.308;2023-03-12T13:47:35;13.83;65.09
66582;SHT31;53438;48.898;2.308;2023-03-12T13:50:11;13.96;64.25
66582;SHT31;53438;48.898;2.308;2023-03-12T13:58:04;14.18;63.92
66582;SHT31;53438;48.898;2.308;2023-03-12T14:00:51;14.04;64.47
66582;SHT31;53438;48.898;2.308;2023-03-12T14:14:28;13.97;65.15
66582;SHT31;53438;48.898;2.308;2023-03-12T14:16:59;13.90;64.17
66582;SHT31;53438;48.898;2.308;2023-03-12T14:19:30;13.99;65.07
66582;SHT31;53438;48.898;2.308;2023-03-12T14:22:01;13.94;65.76
66582;SHT31;53438;48.898;2.308;2023-03-12T14:24:39;13.84;66.67
66582;SHT31;53438;48.898;2.308;2023-03-12T14:27:12;13.90;66.25
66582;SHT31;53438;48.898;2.308;2023-03-12T14:29:41;13.87;65.88
66582;SHT31;53438;48.898;2.308;2023-03-12T14:32:27;14.00;65.31
66582;SHT31;53438;48.898;2.308;2023-03-12T14:35:37;13.97;65.46
66582;SHT31;53438;48.898;2.308;2023-03-12T14:38:13;13.93;64.70
66582;SHT31;53438;48.898;2.308;2023-03-12T14:40:44;14.01;64.95
66582;SHT31;53438;48.898;2.308;2023-03-12T14:43:29;14.03;65.11
66582;SHT31;53438;48.898;2.308;2023-03-12T14:46:00;14.01;64.99
66582;SHT31;53438;48.898;2.308;2023-03-12T14:48:30;13.97;65.11
66582;SHT31;53438;48.898;2.308;2023-03-12T14:50:56;14.00;65.00
66582;SHT31;53438;48.898;2.308;2023-03-12T14:53:35;14.03;65.42
66582;SHT31;53438;48.898;2.308;2023-03-12T14:56:02;14.01;65.05
66582;SHT31;53438;48.898;2.308;2023-03-12T14:58:30;14.00;64.74
66582;SHT31;53438;48.898;2.308;2023-03-12T15:00:59;14.03;64.55
66582;SHT31;53438;48.898;2.308;2023-03-12T15:03:26;14.00;63.63
66582;SHT31;53438;48.898;2.308;2023-03-12T15:05:52;13.97;64.15
66582;SHT31;53438;48.898;2.308;2023-03-12T15:08:18;13.86;64.28
66582;SHT31;53438;48.898;2.308;2023-03-12T15:10:56;13.89;63.72
66582;SHT31;53438;48.898;2.308;2023-03-12T15:13:23;13.96;64.23
66582;SHT31;53438;48.898;2.308;2023-03-12T15:15:54;14.10;62.25
66582;SHT31;53438;48.898;2.308;2023-03-12T15:18:30;14.09;63.64
66582;SHT31;53438;48.898;2.308;2023-03-12T15:20:57;14.09;63.49
66582;SHT31;53438;48.898;2.308;2023-03-12T15:23:25;14.09;63.84
66582;SHT31;53438;48.898;2.308;2023-03-12T15:26:31;14.01;64.40
66582;SHT31;53438;48.898;2.308;2023-03-12T15:29:00;13.93;65.35
66582;SHT31;53438;48.898;2.308;2023-03-12T15:31:39;13.91;66.09
66582;SHT31;53438;48.898;2.308;2023-03-12T15:34:05;13.90;66.60
66582;SHT31;53438;48.898;2.308;2023-03-12T15:36:32;13.86;67.23
66582;SHT31;53438;48.898;2.308;2023-03-12T15:39:02;13.87;66.62
66582;SHT31;53438;48.898;2.308;2023-03-12T15:41:46;13.82;67.36
66582;SHT31;53438;48.898;2.308;2023-03-12T15:46:45;13.87;66.52
66582;SHT31;53438;48.898;2.308;2023-03-12T15:49:20;13.84;66.63
66582;SHT31;53438;48.898;2.308;2023-03-12T15:52:02;13.84;67.11
66582;SHT31;53438;48.898;2.308;2023-03-12T15:54:28;13.76;66.73
66582;SHT31;53438;48.898;2.308;2023-03-12T15:57:14;13.80;66.94
66582;SHT31;53438;48.898;2.308;2023-03-12T15:59:42;13.79;67.33
66582;SHT31;53438;48.898;2.308;2023-03-12T16:02:10;13.79;67.55
66582;SHT31;53438;48.898;2.308;2023-03-12T16:04:37;13.80;68.04
66582;SHT31;53438;48.898;2.308;2023-03-12T16:07:02;13.77;67.58
66582;SHT31;53438;48.898;2.308;2023-03-12T16:09:28;13.72;68.04
66582;SHT31;53438;48.898;2.308;2023-03-12T16:11:56;13.77;67.45
66582;SHT31;53438;48.898;2.308;2023-03-12T16:14:28;13.70;67.95
66582;SHT31;53438;48.898;2.308;2023-03-12T16:16:55;13.69;66.80
66582;SHT31;53438;48.898;2.308;2023-03-12T16:19:21;13.72;66.83
66582;SHT31;53438;48.898;2.308;2023-03-12T16:21:48;13.70;66.78
66582;SHT31;53438;48.898;2.308;2023-03-12T16:24:14;13.70;67.38
66582;SHT31;53438;48.898;2.308;2023-03-12T16:26:53;13.66;67.38
66582;SHT31;53438;48.898;2.308;2023-03-12T16:29:20;13.65;67.57
66582;SHT31;53438;48.898;2.308;2023-03-12T16:31:53;13.62;67.12
66582;SHT31;53438;48.898;2.308;2023-03-12T16:34:19;13.61;68.29
66582;SHT31;53438;48.898;2.308;2023-03-12T16:36:44;13.66;67.99
66582;SHT31;53438;48.898;2.308;2023-03-12T16:39:10;13.63;69.17
66582;SHT31;53438;48.898;2.308;2023-03-12T16:41:35;13.67;69.04
66582;SHT31;53438;48.898;2.308;2023-03-12T16:44:01;13.61;69.80
66582;SHT31;53438;48.898;2.308;2023-03-12T16:46:29;13.59;69.87
66582;SHT31;53438;48.898;2.308;2023-03-12T16:48:58;13.56;69.92
66582;SHT31;53438;48.898;2.308;2023-03-12T16:51:24;13.55;69.80
66582;SHT31;53438;48.898;2.308;2023-03-12T16:53:50;13.53;69.86
66582;SHT31;53438;48.898;2.308;2023-03-12T16:56:18;13.55;70.50
66582;SHT31;53438;48.898;2.308;2023-03-12T16:58:45;13.52;70.14
66582;SHT31;53438;48.898;2.308;2023-03-12T17:01:16;13.45;70.27
66582;SHT31;53438;48.898;2.308;2023-03-12T17:03:43;13.46;70.48
66582;SHT31;53438;48.898;2.308;2023-03-12T17:06:24;13.52;70.25
66582;SHT31;53438;48.898;2.308;2023-03-12T17:08:51;13.52;70.65
66582;SHT31;53438;48.898;2.308;2023-03-12T17:11:20;13.49;70.28
66582;SHT31;53438;48.898;2.308;2023-03-12T17:13:52;13.48;71.07
66582;SHT31;53438;48.898;2.308;2023-03-12T17:16:18;13.42;70.80
66582;SHT31;53438;48.898;2.308;2023-03-12T17:18:44;13.39;70.94
66582;SHT31;53438;48.898;2.308;2023-03-12T17:21:11;13.45;70.93
66582;SHT31;53438;48.898;2.308;2023-03-12T17:23:37;13.39;71.09
66582;SHT31;53438;48.898;2.308;2023-03-12T17:26:03;13.43;70.96
66582;SHT31;53438;48.898;2.308;2023-03-12T17:28:29;13.38;71.18
66582;SHT31;53438;48.898;2.308;2023-03-12T17:30:54;13.36;71.62
66582;SHT31;53438;48.898;2.308;2023-03-12T17:33:20;13.32;71.67
66582;SHT31;53438;48.898;2.308;2023-03-12T17:35:45;13.41;71.59
66582;SHT31;53438;48.898;2.308;2023-03-12T17:38:11;13.45;71.75
66582;SHT31;53438;48.898;2.308;2023-03-12T17:40:40;13.38;71.82
66582;SHT31;53438;48.898;2.308;2023-03-12T17:43:06;13.41;72.09
66582;SHT31;53438;48.898;2.308;2023-03-12T17:45:31;13.42;72.11
66582;SHT31;53438;48.898;2.308;2023-03-12T17:47:58;13.34;72.12
66582;SHT31;53438;48.898;2.308;2023-03-12T17:50:23;13.32;72.30
66582;SHT31;53438;48.898;2.308;2023-03-12T17:52:48;13.36;72.41
66582;SHT31;53438;48.898;2.308;2023-03-12T17:55:14;13.42;72.35
66582;SHT31;53438;48.898;2.308;2023-03-12T17:57:39;13.36;72.38
66582;SHT31;53438;48.898;2.308;2023-03-12T18:00:05;13.36;72.48
66582;SHT31;53438;48.898;2.308;2023-03-12T18:02:37;13.32;72.73
66582;SHT31;53438;48.898;2.308;2023-03-12T18:05:03;13.32;72.60
66582;SHT31;53438;48.898;2.308;2023-03-12T18:07:29;13.26;72.61
66582;SHT31;53438;48.898;2.308;2023-03-12T18:09:54;13.29;72.77
66582;SHT31;53438;48.898;2.308;2023-03-12T18:12:19;13.29;72.85
66582;SHT31;53438;48.898;2.308;2023-03-12T18:14:45;13.29;72.87
66582;SHT31;53438;48.898;2.308;2023-03-12T18:17:10;13.31;72.88
66582;SHT31;53438;48.898;2.308;2023-03-12T18:19:35;13.28;72.87
66582;SHT31;53438;48.898;2.308;2023-03-12T18:22:02;13.25;72.88
66582;SHT31;53438;48.898;2.308;2023-03-12T18:24:27;13.29;73.30
66582;SHT31;53438;48.898;2.308;2023-03-12T18:26:52;13.38;73.35
66582;SHT31;53438;48.898;2.308;2023-03-12T18:29:18;13.29;73.35
66582;SHT31;53438;48.898;2.308;2023-03-12T18:31:43;13.25;73.62
66582;SHT31;53438;48.898;2.308;2023-03-12T18:34:09;13.19;73.71
66582;SHT31;53438;48.898;2.308;2023-03-12T18:36:34;13.24;73.92
66582;SHT31;53438;48.898;2.308;2023-03-12T18:38:59;13.24;74.01
66582;SHT31;53438;48.898;2.308;2023-03-12T18:41:29;13.26;73.96
66582;SHT31;53438;48.898;2.308;2023-03-12T18:43:57;13.25;74.15
66582;SHT31;53438;48.898;2.308;2023-03-12T18:46:23;13.25;74.22
66582;SHT31;53438;48.898;2.308;2023-03-12T18:48:48;13.26;74.30
66582;SHT31;53438;48.898;2.308;2023-03-12T18:51:14;13.26;74.26
66582;SHT31;53438;48.898;2.308;2023-03-12T18:53:40;13.28;74.44
66582;SHT31;53438;48.898;2.308;2023-03-12T18:56:06;13.29;74.39
66582;SHT31;53438;48.898;2.308;2023-03-12T18:58:31;13.28;74.45
66582;SHT31;53438;48.898;2.308;2023-03-12T19:00:58;13.32;74.54
66582;SHT31;53438;48.898;2.308;2023-03-12T19:03:24;13.35;74.32
66582;SHT31;53438;48.898;2.308;2023-03-12T19:06:00;13.31;74.32
66582;SHT31;53438;48.898;2.308;2023-03-12T19:08:26;13.28;74.72
66582;SHT31;53438;48.898;2.308;2023-03-12T19:10:51;13.28;74.78
66582;SHT31;53438;48.898;2.308;2023-03-12T19:13:17;13.24;74.95
66582;SHT31;53438;48.898;2.308;2023-03-12T19:15:42;13.22;75.09
66582;SHT31;53438;48.898;2.308;2023-03-12T19:18:09;13.21;75.15
66582;SHT31;53438;48.898;2.308;2023-03-12T19:20:34;13.22;75.04
66582;SHT31;53438;48.898;2.308;2023-03-12T19:23:00;13.29;74.89
66582;SHT31;53438;48.898;2.308;2023-03-12T19:25:26;13.31;74.71
66582;SHT31;53438;48.898;2.308;2023-03-12T19:27:51;13.26;74.82
66582;SHT31;53438;48.898;2.308;2023-03-12T19:30:16;13.24;74.85
66582;SHT31;53438;48.898;2.308;2023-03-12T19:32:42;13.22;75.22
66582;SHT31;53438;48.898;2.308;2023-03-12T19:35:08;13.36;74.86
66582;SHT31;53438;48.898;2.308;2023-03-12T19:37:35;13.38;74.71
66582;SHT31;53438;48.898;2.308;2023-03-12T19:40:00;13.41;74.81
66582;SHT31;53438;48.898;2.308;2023-03-12T19:42:25;13.39;75.24
66582;SHT31;53438;48.898;2.308;2023-03-12T19:44:51;13.41;75.21
66582;SHT31;53438;48.898;2.308;2023-03-12T19:47:17;13.38;75.54
66582;SHT31;53438;48.898;2.308;2023-03-12T19:49:44;13.38;75.78
66582;SHT31;53438;48.898;2.308;2023-03-12T19:52:09;13.43;76.38
66582;SHT31;53438;48.898;2.308;2023-03-12T19:54:34;13.41;76.64
66582;SHT31;53438;48.898;2.308;2023-03-12T19:57:00;13.42;77.36
66582;SHT31;53438;48.898;2.308;2023-03-12T19:59:25;13.38;77.22
66582;SHT31;53438;48.898;2.308;2023-03-12T20:01:50;13.35;78.71
66582;SHT31;53438;48.898;2.308;2023-03-12T20:04:16;13.31;78.89
66582;SHT31;53438;48.898;2.308;2023-03-12T20:06:41;13.39;79.26
66582;SHT31;53438;48.898;2.308;2023-03-12T20:09:06;13.41;79.79
66582;SHT31;53438;48.898;2.308;2023-03-12T20:11:33;13.35;79.96
66582;SHT31;53438;48.898;2.308;2023-03-12T20:14:00;13.34;80.83